createdAt,value
2018-12-24T00:00:53.350Z,4.98
2018-12-24T00:01:53.350Z,4.94
2018-12-24T00:02:53.371Z,4.79
2018-12-24T00:03:53.335Z,4.80
2018-12-24T00:04:53.341Z,4.77
2018-12-24T00:05:53.320Z,4.83
2018-12-24T00:06:53.321Z,4.67
2018-12-24T00:07:53.306Z,4.72
2018-12-24T00:08:53.301Z,4.69
2018-12-24T00:09:53.297Z,4.67
2018-12-24T00:10:53.315Z,4.67
2018-12-24T00:11:53.283Z,4.69
2018-12-24T00:12:53.277Z,4.69
2018-12-24T00:13:53.271Z,4.65
2018-12-24T00:14:53.295Z,4.62
2018-12-24T00:15:53.257Z,4.69
2018-12-24T00:16:53.250Z,4.64
2018-12-24T00:17:53.243Z,4.73
2018-12-24T00:18:53.258Z,4.62
2018-12-24T00:19:53.233Z,4.67
2018-12-24T00:20:53.227Z,4.61
2018-12-24T00:21:53.220Z,4.65
2018-12-24T00:22:53.216Z,4.58
2018-12-24T00:23:53.238Z,4.47
2018-12-24T00:24:53.201Z,4.34
2018-12-24T00:25:53.221Z,4.32
2018-12-24T00:26:53.189Z,4.19
2018-12-24T00:27:53.179Z,4.15
2018-12-24T00:28:53.179Z,4.18
2018-12-24T00:29:53.167Z,4.01
2018-12-24T00:30:53.159Z,4.04
2018-12-24T00:31:53.181Z,3.97
2018-12-24T00:32:53.203Z,3.98
2018-12-24T00:33:53.143Z,4.00
2018-12-24T00:34:53.166Z,3.90
2018-12-24T00:35:53.146Z,3.94
2018-12-24T00:36:53.123Z,3.89
2018-12-24T00:37:53.112Z,3.85
2018-12-24T00:38:53.106Z,3.96
2018-12-24T00:39:53.102Z,3.82
2018-12-24T00:40:53.126Z,3.89
2018-12-24T00:41:53.087Z,3.97
2018-12-24T00:42:53.079Z,3.85
2018-12-24T00:43:53.073Z,3.85
2018-12-24T00:44:53.078Z,3.82
2018-12-24T00:45:53.060Z,3.68
2018-12-24T00:46:53.056Z,3.76
2018-12-24T00:47:53.047Z,3.76
2018-12-24T00:48:53.039Z,3.75
2018-12-24T00:49:53.031Z,3.78
2018-12-24T00:50:53.108Z,3.75
2018-12-24T00:51:53.023Z,3.76
2018-12-24T00:52:53.010Z,3.70
2018-12-24T00:53:53.013Z,3.64
2018-12-24T00:54:52.995Z,3.65
2018-12-24T00:55:53.005Z,3.72
2018-12-24T00:56:52.983Z,3.68
2018-12-24T00:57:52.976Z,3.64
2018-12-24T00:58:52.968Z,3.60
2018-12-24T00:59:52.966Z,3.58
2018-12-24T01:00:52.954Z,3.60
2018-12-24T01:01:52.951Z,3.65
2018-12-24T01:02:52.940Z,3.61
2018-12-24T01:03:52.953Z,3.61
2018-12-24T01:04:52.926Z,3.70
2018-12-24T01:05:52.919Z,3.61
2018-12-24T01:06:52.916Z,3.57
2018-12-24T01:07:52.906Z,3.57
2018-12-24T01:08:52.899Z,3.50
2018-12-24T01:09:52.890Z,3.53
2018-12-24T01:10:52.885Z,3.58
2018-12-24T01:11:52.883Z,3.54
2018-12-24T01:12:52.873Z,3.57
2018-12-24T01:13:52.862Z,3.61
2018-12-24T01:14:52.855Z,3.54
2018-12-24T01:15:52.848Z,3.57
2018-12-24T01:16:52.863Z,3.54
2018-12-24T01:17:52.849Z,3.58
2018-12-24T01:18:52.826Z,3.40
2018-12-24T01:19:52.823Z,3.39
2018-12-24T01:20:52.813Z,3.44
2018-12-24T01:21:52.814Z,3.39
2018-12-24T01:22:52.802Z,3.47
2018-12-24T01:23:52.799Z,3.49
2018-12-24T01:24:52.837Z,3.36
2018-12-24T01:25:52.787Z,3.25
2018-12-24T01:26:52.789Z,3.23
2018-12-24T01:27:52.768Z,3.28
2018-12-24T01:28:52.758Z,3.36
2018-12-24T01:29:52.780Z,3.24
2018-12-24T01:30:52.760Z,3.30
2018-12-24T01:31:52.799Z,3.23
2018-12-24T01:32:52.750Z,3.25
2018-12-24T01:33:52.808Z,3.21
2018-12-24T01:34:52.742Z,3.20
2018-12-24T01:35:52.768Z,3.18
2018-12-24T01:36:52.766Z,3.18
2018-12-24T01:37:52.868Z,3.05
2018-12-24T01:38:52.789Z,3.10
2018-12-24T01:39:52.853Z,3.06
2018-12-24T01:40:52.799Z,3.06
2018-12-24T01:41:52.744Z,3.07
2018-12-24T01:42:52.966Z,3.05
2018-12-24T01:43:52.913Z,3.05
2018-12-24T01:44:52.981Z,3.06
2018-12-24T01:46:03.467Z,3.03
2018-12-24T01:46:53.654Z,2.91
2018-12-24T01:47:54.939Z,2.85
2018-12-24T01:48:54.089Z,2.87
2018-12-24T01:49:54.947Z,2.95
2018-12-24T01:50:53.093Z,2.84
2018-12-24T01:51:53.602Z,2.87
2018-12-24T01:52:55.471Z,2.91
2018-12-24T01:53:55.462Z,2.88
2018-12-24T01:54:53.027Z,2.89
2018-12-24T01:55:53.588Z,2.92
2018-12-24T01:56:53.042Z,2.85
2018-12-24T01:57:55.339Z,2.84
2018-12-24T01:58:53.032Z,2.89
2018-12-24T01:59:53.908Z,2.87
2018-12-24T02:00:53.011Z,2.77
2018-12-24T02:01:55.061Z,2.89
2018-12-24T02:02:52.548Z,2.87
2018-12-24T02:03:52.722Z,2.85
2018-12-24T02:04:52.593Z,2.81
2018-12-24T02:05:52.580Z,2.81
2018-12-24T02:06:54.580Z,2.85
2018-12-24T02:07:54.731Z,2.84
2018-12-24T02:08:52.610Z,2.79
2018-12-24T02:09:54.105Z,2.81
2018-12-24T02:10:54.162Z,2.84
2018-12-24T02:11:52.649Z,2.74
2018-12-24T02:12:53.614Z,2.85
2018-12-24T02:13:54.052Z,2.84
2018-12-24T02:14:52.574Z,2.81
2018-12-24T02:15:52.650Z,2.84
2018-12-24T02:16:52.497Z,2.82
2018-12-24T02:17:52.507Z,2.81
2018-12-24T02:18:54.201Z,2.79
2018-12-24T02:19:52.500Z,2.71
2018-12-24T02:20:52.564Z,2.71
2018-12-24T02:21:54.082Z,2.70
2018-12-24T02:22:52.507Z,2.67
2018-12-24T02:23:54.139Z,2.71
2018-12-24T02:24:52.412Z,2.71
2018-12-24T02:25:52.465Z,2.71
2018-12-24T02:26:52.512Z,2.73
2018-12-24T02:27:55.253Z,2.70
2018-12-24T02:28:53.478Z,2.69
2018-12-24T02:29:52.442Z,2.71
2018-12-24T02:30:52.543Z,2.76
2018-12-24T02:31:54.107Z,2.76
2018-12-24T02:32:52.588Z,2.70
2018-12-24T02:33:54.421Z,2.70
2018-12-24T02:34:52.312Z,2.74
2018-12-24T02:35:52.459Z,2.79
2018-12-24T02:36:52.492Z,2.77
2018-12-24T02:37:52.510Z,2.67
2018-12-24T02:38:52.445Z,2.76
2018-12-24T02:39:54.103Z,2.76
2018-12-24T02:40:52.402Z,2.81
2018-12-24T02:41:54.214Z,2.77
2018-12-24T02:42:52.843Z,2.76
2018-12-24T02:43:52.524Z,2.77
2018-12-24T02:44:52.260Z,2.74
2018-12-24T02:45:54.285Z,2.82
2018-12-24T02:46:54.097Z,2.82
2018-12-24T02:47:52.233Z,2.81
2018-12-24T02:48:52.224Z,2.76
2018-12-24T02:49:52.177Z,2.84
2018-12-24T02:50:52.190Z,2.79
2018-12-24T02:51:52.239Z,2.85
2018-12-24T02:52:52.135Z,2.89
2018-12-24T02:53:52.165Z,2.85
2018-12-24T02:54:52.119Z,2.88
2018-12-24T02:55:52.120Z,2.87
2018-12-24T02:56:52.127Z,2.81
2018-12-24T02:57:52.101Z,2.88
2018-12-24T02:58:52.090Z,2.87
2018-12-24T02:59:52.071Z,2.87
2018-12-24T03:00:52.074Z,2.91
2018-12-24T03:01:52.063Z,2.87
2018-12-24T03:02:52.051Z,2.84
2018-12-24T03:03:52.038Z,2.88
2018-12-24T03:04:52.019Z,2.94
2018-12-24T03:05:52.077Z,2.89
2018-12-24T03:06:52.030Z,2.85
2018-12-24T03:07:52.019Z,2.94
2018-12-24T03:08:51.988Z,2.89
2018-12-24T03:09:52.020Z,2.87
2018-12-24T03:10:51.984Z,2.98
2018-12-24T03:11:51.976Z,2.95
2018-12-24T03:12:51.975Z,2.95
2018-12-24T03:13:52.009Z,2.92
2018-12-24T03:14:51.956Z,2.89
2018-12-24T03:15:51.979Z,2.89
2018-12-24T03:16:52.035Z,2.94
2018-12-24T03:17:51.979Z,2.91
2018-12-24T03:18:51.943Z,2.91
2018-12-24T03:19:51.969Z,3.00
2018-12-24T03:20:52.076Z,2.88
2018-12-24T03:21:53.538Z,2.91
2018-12-24T03:22:51.900Z,2.94
2018-12-24T03:23:52.031Z,2.88
2018-12-24T03:24:51.989Z,2.85
2018-12-24T03:25:51.969Z,2.97
2018-12-24T03:26:51.978Z,2.97
2018-12-24T03:27:51.907Z,2.94
2018-12-24T03:28:52.004Z,2.92
2018-12-24T03:29:51.975Z,2.95
2018-12-24T03:30:51.877Z,2.94
2018-12-24T03:31:51.854Z,2.89
2018-12-24T03:32:51.961Z,2.94
2018-12-24T03:33:53.495Z,2.97
2018-12-24T03:34:53.666Z,2.91
2018-12-24T03:35:53.459Z,2.92
2018-12-24T03:36:51.789Z,3.03
2018-12-24T03:37:51.810Z,3.07
2018-12-24T03:38:51.838Z,3.05
2018-12-24T03:39:51.776Z,3.05
2018-12-24T03:40:51.763Z,3.09
2018-12-24T03:41:51.771Z,3.07
2018-12-24T03:42:51.737Z,3.07
2018-12-24T03:43:51.729Z,3.02
2018-12-24T03:44:51.737Z,3.05
2018-12-24T03:45:51.710Z,3.03
2018-12-24T03:46:51.688Z,3.05
2018-12-24T03:47:51.682Z,3.10
2018-12-24T03:48:51.871Z,3.06
2018-12-24T03:49:51.683Z,3.05
2018-12-24T03:50:51.696Z,3.07
2018-12-24T03:51:51.709Z,3.06
2018-12-24T03:52:51.652Z,3.05
2018-12-24T03:53:51.679Z,3.07
2018-12-24T03:54:51.650Z,3.03
2018-12-24T03:55:51.642Z,3.00
2018-12-24T03:56:51.669Z,3.06
2018-12-24T03:57:51.643Z,3.12
2018-12-24T03:58:51.671Z,3.10
2018-12-24T03:59:51.640Z,3.12
2018-12-24T04:00:53.521Z,3.06
2018-12-24T04:01:51.586Z,3.09
2018-12-24T04:02:51.569Z,3.07
2018-12-24T04:03:51.572Z,3.06
2018-12-24T04:04:51.608Z,3.20
2018-12-24T04:05:51.569Z,3.18
2018-12-24T04:06:51.562Z,3.24
2018-12-24T04:07:51.583Z,3.28
2018-12-24T04:08:51.564Z,3.23
2018-12-24T04:09:51.544Z,3.20
2018-12-24T04:10:51.520Z,3.25
2018-12-24T04:11:51.515Z,3.23
2018-12-24T04:12:51.517Z,3.23
2018-12-24T04:13:51.478Z,3.20
2018-12-24T04:14:51.494Z,3.42
2018-12-24T04:15:52.970Z,3.34
2018-12-24T04:16:51.505Z,3.34
2018-12-24T04:17:51.463Z,3.28
2018-12-24T04:18:51.479Z,3.30
2018-12-24T04:19:51.431Z,3.42
2018-12-24T04:20:51.429Z,3.47
2018-12-24T04:21:51.436Z,3.47
2018-12-24T04:22:51.415Z,3.42
2018-12-24T04:23:51.454Z,3.53
2018-12-24T04:24:51.420Z,3.58
2018-12-24T04:25:51.376Z,3.46
2018-12-24T04:26:51.428Z,3.43
2018-12-24T04:27:51.360Z,3.46
2018-12-24T04:28:51.364Z,3.44
2018-12-24T04:29:51.344Z,3.42
2018-12-24T04:30:51.347Z,3.58
2018-12-24T04:31:51.329Z,3.53
2018-12-24T04:32:51.319Z,3.54
2018-12-24T04:33:51.309Z,3.53
2018-12-24T04:34:51.303Z,3.57
2018-12-24T04:35:51.301Z,3.54
2018-12-24T04:36:51.290Z,3.54
2018-12-24T04:37:51.310Z,3.60
2018-12-24T04:38:51.298Z,3.61
2018-12-24T04:39:51.262Z,3.54
2018-12-24T04:40:51.253Z,3.60
2018-12-24T04:41:51.268Z,3.57
2018-12-24T04:42:51.268Z,3.61
2018-12-24T04:43:51.238Z,3.65
2018-12-24T04:44:51.221Z,3.60
2018-12-24T04:45:51.218Z,3.60
2018-12-24T04:46:51.212Z,3.61
2018-12-24T04:47:51.203Z,3.65
2018-12-24T04:48:51.192Z,3.64
2018-12-24T04:49:51.185Z,3.50
2018-12-24T04:50:51.181Z,3.60
2018-12-24T04:51:51.165Z,3.62
2018-12-24T04:52:51.164Z,3.64
2018-12-24T04:53:51.154Z,3.60
2018-12-24T04:54:51.147Z,3.61
2018-12-24T04:55:51.136Z,3.54
2018-12-24T04:56:51.131Z,3.68
2018-12-24T04:57:51.153Z,3.65
2018-12-24T04:58:51.113Z,3.60
2018-12-24T04:59:51.121Z,3.65
2018-12-24T05:00:51.096Z,3.65
2018-12-24T05:01:51.093Z,3.58
2018-12-24T05:02:51.082Z,3.65
2018-12-24T05:03:51.109Z,3.70
2018-12-24T05:04:51.068Z,3.71
2018-12-24T05:05:51.062Z,3.65
2018-12-24T05:06:51.049Z,3.70
2018-12-24T05:07:51.042Z,3.71
2018-12-24T05:08:51.034Z,3.76
2018-12-24T05:09:51.032Z,3.68
2018-12-24T05:10:51.043Z,3.71
2018-12-24T05:11:51.009Z,3.75
2018-12-24T05:12:51.027Z,3.80
2018-12-24T05:13:50.999Z,3.86
2018-12-24T05:14:50.987Z,3.86
2018-12-24T05:15:51.012Z,3.88
2018-12-24T05:16:51.041Z,3.88
2018-12-24T05:17:50.976Z,3.88
2018-12-24T05:18:50.995Z,3.86
2018-12-24T05:19:50.953Z,3.79
2018-12-24T05:20:50.940Z,3.90
2018-12-24T05:21:50.935Z,3.96
2018-12-24T05:22:50.924Z,3.90
2018-12-24T05:23:50.916Z,3.90
2018-12-24T05:24:50.922Z,3.94
2018-12-24T05:25:50.902Z,3.96
2018-12-24T05:26:50.906Z,3.92
2018-12-24T05:27:50.912Z,3.94
2018-12-24T05:28:50.879Z,3.89
2018-12-24T05:29:50.882Z,3.89
2018-12-24T05:30:50.874Z,3.89
2018-12-24T05:31:50.855Z,3.98
2018-12-24T05:32:50.850Z,3.98
2018-12-24T05:33:50.844Z,3.94
2018-12-24T05:34:50.849Z,4.03
2018-12-24T05:35:50.827Z,4.01
2018-12-24T05:36:50.837Z,4.00
2018-12-24T05:37:50.817Z,3.97
2018-12-24T05:38:50.809Z,3.97
2018-12-24T05:39:50.815Z,4.07
2018-12-24T05:40:50.788Z,4.12
2018-12-24T05:41:50.780Z,3.98
2018-12-24T05:42:50.772Z,4.00
2018-12-24T05:43:50.764Z,4.07
2018-12-24T05:44:50.757Z,4.12
2018-12-24T05:45:50.749Z,4.08
2018-12-24T05:46:50.741Z,4.03
2018-12-24T05:47:50.735Z,4.10
2018-12-24T05:48:50.726Z,4.10
2018-12-24T05:49:50.722Z,4.16
2018-12-24T05:50:50.714Z,4.10
2018-12-24T05:51:50.703Z,4.08
2018-12-24T05:52:50.699Z,4.04
2018-12-24T05:53:50.690Z,4.15
2018-12-24T05:54:50.685Z,4.10
2018-12-24T05:55:50.740Z,4.12
2018-12-24T05:56:50.670Z,4.12
2018-12-24T05:57:50.682Z,4.18
2018-12-24T05:58:50.686Z,4.07
2018-12-24T05:59:52.506Z,4.12
2018-12-24T06:00:50.687Z,4.14
2018-12-24T06:01:50.664Z,4.08
2018-12-24T06:02:50.659Z,4.12
2018-12-24T06:03:50.671Z,4.22
2018-12-24T06:04:50.656Z,4.14
2018-12-24T06:05:50.636Z,4.12
2018-12-24T06:06:50.617Z,4.15
2018-12-24T06:07:52.688Z,4.14
2018-12-24T06:08:52.674Z,4.07
2018-12-24T06:09:51.853Z,4.18
2018-12-24T06:10:53.634Z,4.18
2018-12-24T06:11:51.837Z,4.08
2018-12-24T06:12:50.672Z,4.18
2018-12-24T06:13:57.788Z,4.12
2018-12-24T06:14:50.634Z,4.12
2018-12-24T06:15:50.551Z,4.16
2018-12-24T06:16:50.524Z,4.15
2018-12-24T06:17:50.509Z,4.12
2018-12-24T06:18:50.506Z,4.10
2018-12-24T06:19:50.506Z,4.00
2018-12-24T06:20:50.513Z,4.10
2018-12-24T06:21:50.514Z,4.06
2018-12-24T06:22:50.481Z,4.10
2018-12-24T06:23:50.465Z,4.15
2018-12-24T06:24:50.457Z,4.15
2018-12-24T06:25:50.449Z,4.16
2018-12-24T06:26:50.491Z,4.18
2018-12-24T06:27:50.435Z,4.03
2018-12-24T06:28:50.428Z,4.10
2018-12-24T06:29:50.419Z,4.10
2018-12-24T06:30:50.414Z,4.18
2018-12-24T06:31:50.406Z,4.16
2018-12-24T06:32:50.398Z,4.07
2018-12-24T06:33:50.389Z,4.19
2018-12-24T06:34:50.381Z,4.12
2018-12-24T06:35:50.377Z,4.21
2018-12-24T06:36:50.375Z,4.21
2018-12-24T06:37:50.426Z,4.18
2018-12-24T06:38:50.354Z,4.01
2018-12-24T06:39:50.348Z,4.18
2018-12-24T06:40:50.427Z,4.18
2018-12-24T06:41:50.356Z,4.16
2018-12-24T06:42:50.349Z,4.12
2018-12-24T06:43:50.331Z,4.19
2018-12-24T06:44:50.323Z,4.19
2018-12-24T06:45:50.331Z,4.12
2018-12-24T06:46:50.323Z,4.21
2018-12-24T06:47:50.299Z,4.16
2018-12-24T06:48:50.278Z,4.21
2018-12-24T06:49:50.357Z,4.19
2018-12-24T06:50:50.273Z,4.19
2018-12-24T06:52:19.706Z,4.16
2018-12-24T06:53:20.268Z,4.18
2018-12-24T06:55:13.097Z,4.12
2018-12-24T06:56:13.644Z,4.18
2018-12-24T06:58:06.499Z,4.15
2018-12-24T06:59:06.492Z,4.22
2018-12-24T07:00:59.401Z,4.19
2018-12-24T07:01:59.376Z,4.21
2018-12-24T07:03:52.114Z,4.18
2018-12-24T07:04:52.030Z,4.19
2018-12-24T07:06:45.983Z,4.15
2018-12-24T07:07:45.968Z,4.22
2018-12-24T07:09:40.058Z,4.07
2018-12-24T07:10:39.503Z,4.04
2018-12-24T07:12:32.459Z,3.98
2018-12-24T07:13:33.331Z,3.97
2018-12-24T07:14:32.239Z,3.90
2018-12-24T07:15:32.182Z,3.90
2018-12-24T07:16:32.102Z,3.88
2018-12-24T07:17:33.386Z,3.80
2018-12-24T07:18:32.895Z,3.90
2018-12-24T07:19:32.835Z,3.89
2018-12-24T07:20:31.978Z,3.88
2018-12-24T07:21:31.894Z,3.96
2018-12-24T07:22:31.861Z,3.94
2018-12-24T07:23:31.866Z,3.92
2018-12-24T07:24:31.884Z,3.89
2018-12-24T07:25:31.864Z,3.94
2018-12-24T07:26:31.828Z,3.90
2018-12-24T07:27:31.890Z,3.97
2018-12-24T07:28:31.884Z,3.86
2018-12-24T07:29:31.823Z,3.96
2018-12-24T07:30:31.821Z,3.96
2018-12-24T07:31:31.861Z,3.98
2018-12-24T07:32:31.811Z,3.98
2018-12-24T07:33:31.765Z,3.92
2018-12-24T07:34:32.697Z,4.03
2018-12-24T07:35:31.753Z,4.01
2018-12-24T07:36:31.756Z,4.00
2018-12-24T07:37:31.754Z,3.97
2018-12-24T07:38:31.752Z,4.01
2018-12-24T07:39:31.772Z,3.97
2018-12-24T07:40:31.725Z,3.97
2018-12-24T07:41:31.709Z,4.03
2018-12-24T07:42:33.501Z,3.97
2018-12-24T07:43:31.712Z,4.01
2018-12-24T07:44:31.711Z,3.97
2018-12-24T07:45:31.677Z,4.01
2018-12-24T07:46:31.673Z,4.00
2018-12-24T07:47:31.661Z,3.98
2018-12-24T07:48:33.505Z,3.97
2018-12-24T07:49:31.661Z,4.00
2018-12-24T07:50:31.643Z,4.01
2018-12-24T07:51:31.633Z,3.98
2018-12-24T07:52:31.646Z,3.97
2018-12-24T07:53:31.647Z,3.98
2018-12-24T07:54:31.607Z,4.08
2018-12-24T07:55:33.547Z,3.97
2018-12-24T07:56:31.614Z,4.03
2018-12-24T07:57:31.593Z,4.04
2018-12-24T07:58:31.607Z,4.01
2018-12-24T07:59:31.567Z,3.98
2018-12-24T08:00:31.671Z,4.00
2018-12-24T08:01:31.605Z,4.06
2018-12-24T08:02:31.553Z,4.06
2018-12-24T08:03:31.594Z,4.07
2018-12-24T08:04:31.577Z,4.06
2018-12-24T08:05:31.597Z,4.08
2018-12-24T08:06:31.559Z,4.01
2018-12-24T08:07:31.649Z,4.08
2018-12-24T08:08:31.563Z,4.07
2018-12-24T08:09:31.581Z,4.01
2018-12-24T08:10:31.546Z,4.12
2018-12-24T08:11:31.551Z,3.98
2018-12-24T08:12:31.548Z,4.12
2018-12-24T08:13:31.556Z,4.10
2018-12-24T08:14:33.270Z,4.07
2018-12-24T08:15:31.550Z,4.14
2018-12-24T08:16:31.484Z,4.10
2018-12-24T08:17:31.515Z,4.07
2018-12-24T08:18:31.494Z,4.08
2018-12-24T08:19:31.479Z,4.14
2018-12-24T08:20:33.022Z,4.07
2018-12-24T08:21:31.486Z,4.06
2018-12-24T08:22:31.463Z,4.00
2018-12-24T08:23:31.448Z,4.04
2018-12-24T08:24:31.465Z,4.08
2018-12-24T08:25:31.461Z,4.08
2018-12-24T08:26:31.397Z,4.06
2018-12-24T08:27:31.396Z,4.10
2018-12-24T08:28:31.379Z,4.10
2018-12-24T08:29:31.481Z,4.01
2018-12-24T08:30:32.077Z,4.07
2018-12-24T08:31:31.348Z,4.04
2018-12-24T08:32:33.190Z,4.14
2018-12-24T08:33:31.368Z,4.01
2018-12-24T08:34:31.450Z,4.19
2018-12-24T08:35:31.339Z,4.07
2018-12-24T08:36:31.334Z,4.08
2018-12-24T08:37:31.342Z,4.12
2018-12-24T08:38:31.296Z,4.10
2018-12-24T08:39:31.308Z,4.21
2018-12-24T08:40:31.285Z,4.00
2018-12-24T08:41:31.306Z,4.19
2018-12-24T08:42:31.275Z,4.14
2018-12-24T08:43:31.262Z,4.10
2018-12-24T08:44:31.276Z,4.19
2018-12-24T08:45:31.235Z,4.19
2018-12-24T08:46:31.242Z,4.16
2018-12-24T08:47:31.346Z,4.16
2018-12-24T08:48:31.221Z,4.19
2018-12-24T08:49:31.207Z,4.18
2018-12-24T08:50:31.365Z,4.10
2018-12-24T08:51:33.252Z,4.12
2018-12-24T08:52:31.200Z,4.21
2018-12-24T08:53:31.256Z,4.16
2018-12-24T08:54:31.308Z,4.15
2018-12-24T08:55:31.167Z,4.15
2018-12-24T08:56:31.327Z,4.18
2018-12-24T08:57:31.154Z,4.15
2018-12-24T08:58:31.307Z,4.22
2018-12-24T08:59:33.167Z,4.19
2018-12-24T09:00:31.149Z,4.18
2018-12-24T09:01:31.135Z,4.19
2018-12-24T09:02:31.127Z,4.14
2018-12-24T09:03:31.101Z,4.22
2018-12-24T09:04:31.121Z,4.18
2018-12-24T09:05:31.090Z,4.16
2018-12-24T09:06:31.087Z,4.24
2018-12-24T09:07:31.083Z,4.18
2018-12-24T09:08:31.062Z,4.34
2018-12-24T09:09:32.987Z,4.33
2018-12-24T09:10:31.076Z,4.33
2018-12-24T09:11:31.091Z,4.37
2018-12-24T09:12:31.034Z,4.26
2018-12-24T09:13:31.060Z,4.29
2018-12-24T09:14:31.018Z,4.34
2018-12-24T09:15:31.016Z,4.36
2018-12-24T09:16:31.041Z,4.28
2018-12-24T09:17:31.013Z,4.28
2018-12-24T09:18:31.014Z,4.22
2018-12-24T09:19:31.004Z,4.36
2018-12-24T09:20:30.979Z,4.36
2018-12-24T09:21:31.008Z,4.40
2018-12-24T09:22:30.963Z,4.33
2018-12-24T09:23:30.981Z,4.29
2018-12-24T09:24:30.994Z,4.34
2018-12-24T09:25:30.973Z,4.37
2018-12-24T09:26:30.937Z,4.34
2018-12-24T09:27:30.941Z,4.33
2018-12-24T09:28:30.984Z,4.36
2018-12-24T09:29:30.934Z,4.32
2018-12-24T09:30:30.901Z,4.28
2018-12-24T09:31:32.531Z,4.33
2018-12-24T09:32:30.889Z,4.26
2018-12-24T09:33:30.941Z,4.40
2018-12-24T09:34:38.358Z,4.50
2018-12-24T09:36:24.100Z,4.40
2018-12-24T09:37:24.001Z,4.34
2018-12-24T09:39:17.037Z,4.37
2018-12-24T09:40:16.583Z,4.36
2018-12-24T09:42:11.941Z,4.37
2018-12-24T09:43:10.753Z,4.40
2018-12-24T09:45:04.117Z,4.33
2018-12-24T09:46:04.104Z,4.29
2018-12-24T09:47:57.578Z,4.28
2018-12-24T09:48:57.236Z,4.37
2018-12-24T09:50:51.394Z,4.40
2018-12-24T09:51:51.120Z,4.34
2018-12-24T09:53:44.873Z,4.40
2018-12-24T09:54:44.764Z,4.39
2018-12-24T09:56:37.730Z,4.34
2018-12-24T09:57:37.346Z,4.50
2018-12-24T09:59:30.831Z,4.46
2018-12-24T10:00:30.518Z,4.37
2018-12-24T10:02:23.613Z,4.36
2018-12-24T10:03:23.511Z,4.44
2018-12-24T10:05:17.021Z,4.39
2018-12-24T10:06:16.952Z,4.39
2018-12-24T10:08:10.389Z,4.44
2018-12-24T10:09:10.064Z,4.40
2018-12-24T10:11:03.773Z,4.52
2018-12-24T10:12:10.970Z,4.46
2018-12-24T10:13:57.267Z,4.50
2018-12-24T10:14:57.684Z,4.44
2018-12-24T10:16:51.704Z,4.42
2018-12-24T10:17:49.985Z,4.47
2018-12-24T10:18:49.737Z,4.44
2018-12-24T10:19:49.969Z,4.42
2018-12-24T10:20:49.899Z,4.46
2018-12-24T10:21:49.949Z,4.51
2018-12-24T10:22:49.918Z,4.55
2018-12-24T10:23:49.924Z,4.39
2018-12-24T10:24:49.832Z,4.44
2018-12-24T10:25:50.329Z,4.40
2018-12-24T10:26:49.813Z,4.40
2018-12-24T10:27:49.614Z,4.44
2018-12-24T10:28:50.180Z,4.44
2018-12-24T10:29:49.893Z,4.43
2018-12-24T10:30:49.884Z,4.40
2018-12-24T10:31:49.826Z,4.44
2018-12-24T10:32:49.811Z,4.42
2018-12-24T10:33:50.402Z,4.44
2018-12-24T10:34:49.882Z,4.33
2018-12-24T10:35:49.783Z,4.36
2018-12-24T10:36:49.841Z,4.40
2018-12-24T10:37:50.631Z,4.33
2018-12-24T10:38:50.205Z,4.34
2018-12-24T10:39:49.785Z,4.43
2018-12-24T10:40:49.721Z,4.42
2018-12-24T10:41:50.420Z,4.42
2018-12-24T10:42:50.106Z,4.37
2018-12-24T10:43:49.788Z,4.50
2018-12-24T10:44:50.795Z,4.39
2018-12-24T10:45:49.723Z,4.50
2018-12-24T10:46:50.590Z,4.32
2018-12-24T10:47:49.701Z,4.37
2018-12-24T10:49:42.595Z,4.32
2018-12-24T10:50:43.086Z,4.36
2018-12-24T10:52:35.423Z,4.33
2018-12-24T10:53:35.378Z,4.36
2018-12-24T10:55:28.415Z,4.37
2018-12-24T10:56:28.290Z,4.36
2018-12-24T10:58:21.234Z,4.36
2018-12-24T10:59:21.349Z,4.33
2018-12-24T11:01:14.714Z,4.25
2018-12-24T11:02:14.562Z,4.25
2018-12-24T11:04:07.988Z,4.16
2018-12-24T11:05:07.882Z,4.19
2018-12-24T11:07:01.059Z,4.18
2018-12-24T11:08:01.033Z,4.19
2018-12-24T11:09:54.516Z,3.97
2018-12-24T11:10:55.348Z,3.89
2018-12-24T11:12:47.457Z,3.88
2018-12-24T11:13:47.417Z,3.94
2018-12-24T11:15:40.700Z,3.92
2018-12-24T11:16:40.035Z,3.94
2018-12-24T11:18:32.940Z,3.83
2018-12-24T11:19:32.717Z,3.75
2018-12-24T11:21:27.386Z,3.88
2018-12-24T11:22:27.196Z,3.89
2018-12-24T11:24:19.785Z,3.83
2018-12-24T11:25:20.167Z,3.82
2018-12-24T11:27:13.090Z,3.83
2018-12-24T11:28:12.522Z,3.78
2018-12-24T11:30:05.885Z,3.76
2018-12-24T11:31:05.907Z,3.78
2018-12-24T11:32:58.963Z,3.78
2018-12-24T11:33:58.762Z,3.70
2018-12-24T11:35:52.894Z,3.71
2018-12-24T11:36:52.525Z,3.65
2018-12-24T11:38:45.512Z,3.71
2018-12-24T11:39:45.496Z,3.76
2018-12-24T11:41:39.242Z,3.72
2018-12-24T11:42:37.816Z,3.75
2018-12-24T11:44:35.132Z,3.72
2018-12-24T11:45:39.670Z,3.60
2018-12-24T11:47:25.435Z,3.60
2018-12-24T11:48:25.477Z,3.61
2018-12-24T11:49:25.137Z,3.64
2018-12-24T11:50:25.248Z,3.60
2018-12-24T11:51:25.114Z,3.65
2018-12-24T11:52:25.383Z,3.67
2018-12-24T11:53:25.380Z,3.65
2018-12-24T11:54:26.578Z,3.65
2018-12-24T11:55:25.522Z,3.62
2018-12-24T11:56:25.534Z,3.62
2018-12-24T11:57:26.009Z,3.65
2018-12-24T11:58:26.031Z,3.58
2018-12-24T11:59:25.739Z,3.65
2018-12-24T12:00:25.427Z,3.65
2018-12-24T12:01:25.255Z,3.67
2018-12-24T12:02:25.405Z,3.70
2018-12-24T12:03:25.481Z,3.70
2018-12-24T12:04:24.966Z,3.72
2018-12-24T12:05:24.964Z,3.76
2018-12-24T12:06:24.955Z,3.76
2018-12-24T12:07:24.946Z,3.85
2018-12-24T12:08:24.951Z,3.80
2018-12-24T12:09:24.933Z,3.90
2018-12-24T12:10:24.945Z,3.94
2018-12-24T12:11:26.646Z,3.89
2018-12-24T12:12:24.915Z,3.92
2018-12-24T12:13:24.932Z,3.92
2018-12-24T12:14:24.934Z,3.90
2018-12-24T12:15:24.925Z,3.98
2018-12-24T12:16:24.893Z,3.90
2018-12-24T12:17:24.930Z,3.89
2018-12-24T12:18:25.050Z,3.90
2018-12-24T12:19:24.946Z,3.89
2018-12-24T12:20:26.698Z,3.97
2018-12-24T12:21:24.890Z,3.92
2018-12-24T12:22:24.888Z,3.89
2018-12-24T12:23:24.871Z,3.97
2018-12-24T12:24:24.944Z,3.97
2018-12-24T12:25:24.878Z,3.94
2018-12-24T12:26:24.911Z,4.00
2018-12-24T12:27:24.835Z,3.97
2018-12-24T12:28:24.886Z,3.97
2018-12-24T12:29:24.823Z,4.00
2018-12-24T12:30:24.815Z,4.01
2018-12-24T12:31:24.855Z,4.14
2018-12-24T12:32:24.826Z,3.98
2018-12-24T12:33:32.303Z,4.12
2018-12-24T12:35:18.141Z,4.14
2018-12-24T12:36:25.240Z,4.18
2018-12-24T12:38:13.734Z,4.12
2018-12-24T12:39:11.125Z,4.07
2018-12-24T12:41:05.124Z,4.12
2018-12-24T12:42:05.017Z,4.04
2018-12-24T12:43:59.323Z,4.04
2018-12-24T12:45:00.232Z,4.07
2018-12-24T12:46:52.293Z,4.10
2018-12-24T12:47:52.255Z,4.14
2018-12-24T12:49:45.976Z,4.19
2018-12-24T12:53:03.770Z,4.16
2018-12-24T12:53:39.551Z,3.98
2018-12-24T12:54:40.096Z,3.94
2018-12-24T12:55:38.629Z,3.88
2018-12-24T12:56:38.624Z,3.72
2018-12-24T12:57:37.522Z,3.65
2018-12-24T12:58:37.610Z,3.65
2018-12-24T12:59:37.587Z,3.58
2018-12-24T13:00:39.015Z,3.60
2018-12-24T13:01:37.264Z,3.58
2018-12-24T13:02:37.348Z,3.54
2018-12-24T13:03:37.318Z,3.54
2018-12-24T13:04:38.116Z,3.47
2018-12-24T13:05:37.540Z,3.57
2018-12-24T13:06:37.575Z,3.46
2018-12-24T13:07:37.952Z,3.40
2018-12-24T13:08:37.530Z,3.43
2018-12-24T13:09:38.127Z,3.46
2018-12-24T13:10:37.543Z,3.40
2018-12-24T13:11:37.025Z,3.44
2018-12-24T13:12:37.122Z,3.46
2018-12-24T13:13:37.176Z,3.44
2018-12-24T13:14:37.005Z,3.46
2018-12-24T13:15:37.489Z,3.42
2018-12-24T13:16:36.988Z,3.39
2018-12-24T13:17:36.986Z,3.42
2018-12-24T13:18:36.983Z,3.40
2018-12-24T13:19:36.968Z,3.36
2018-12-24T13:20:36.958Z,3.33
2018-12-24T13:21:36.954Z,3.44
2018-12-24T13:22:36.967Z,3.43
2018-12-24T13:23:36.936Z,3.40
2018-12-24T13:24:36.933Z,3.43
2018-12-24T13:25:36.934Z,3.44
2018-12-24T13:26:36.918Z,3.44
2018-12-24T13:27:38.686Z,3.43
2018-12-24T13:28:36.917Z,3.44
2018-12-24T13:29:36.890Z,3.42
2018-12-24T13:30:36.880Z,3.36
2018-12-24T13:31:36.876Z,3.33
2018-12-24T13:32:36.880Z,3.23
2018-12-24T13:33:36.867Z,3.25
2018-12-24T13:34:36.898Z,3.23
2018-12-24T13:35:38.688Z,3.23
2018-12-24T13:36:36.845Z,3.20
2018-12-24T13:37:36.860Z,3.20
2018-12-24T13:38:36.855Z,3.16
2018-12-24T13:39:36.822Z,3.16
2018-12-24T13:40:36.936Z,3.06
2018-12-24T13:41:36.812Z,3.06
2018-12-24T13:42:36.797Z,3.07
2018-12-24T13:43:36.791Z,3.07
2018-12-24T13:44:36.792Z,2.95
2018-12-24T13:45:36.772Z,2.95
2018-12-24T13:46:36.785Z,3.02
2018-12-24T13:47:36.754Z,3.02
2018-12-24T13:48:44.292Z,3.09
2018-12-24T13:50:29.856Z,3.06
2018-12-24T13:51:29.606Z,2.95
2018-12-24T13:53:22.843Z,2.98
2018-12-24T13:54:29.835Z,2.97
2018-12-24T13:56:15.648Z,2.88
2018-12-24T13:57:15.330Z,2.88
2018-12-24T13:59:08.445Z,2.91
2018-12-24T14:00:08.206Z,2.82
2018-12-24T14:02:01.899Z,2.95
2018-12-24T14:03:01.589Z,2.84
2018-12-24T14:04:54.670Z,2.88
2018-12-24T14:05:54.530Z,2.87
2018-12-24T14:07:48.126Z,2.91
2018-12-24T14:08:48.011Z,2.89
2018-12-24T14:10:40.895Z,2.91
2018-12-24T14:11:40.875Z,2.82